Flight Track Log - Related Links

Times and Time Zones

All times are in EDT time to prevent confusion due to time zone crossing. See the CES2266 flight status page for this flight to view local times or setup timezone preferences in your user account.

Time Position Orientation Groundspeed Altitude Reporting Facility
EDT Latitude Longitude Course Direction KTS MPH feet Rate Location/Type
Thu 06:02:00 AM 28.9162 112.7348 330° Northwest  Level Estimated
Thu 06:03:00 AM 28.9888 112.6860 330° Northwest  Level Estimated
Thu 06:04:00 AM 29.0614 112.6371 330° Northwest  Level Estimated
Thu 06:05:00 AM 29.1339 112.5881 329° Northwest  Level Estimated
Thu 06:06:00 AM 29.2065 112.5390 329° Northwest  Level Estimated
Thu 06:07:00 AM 29.2790 112.4899 329° Northwest  Level Estimated
Thu 06:08:00 AM 29.3515 112.4407 329° Northwest  Level Estimated
Thu 06:09:00 AM 29.4240 112.3914 329° Northwest  Level Estimated
Thu 06:10:00 AM 29.4965 112.3421 329° Northwest  Level Estimated
Thu 06:11:00 AM 29.5690 112.2927 329° Northwest  Level Estimated
Thu 06:12:00 AM 29.6414 112.2432 329° Northwest  Level Estimated
Thu 06:13:00 AM 29.7138 112.1936 329° Northwest  Level Estimated
Thu 06:14:00 AM 29.7862 112.1440 329° Northwest  Level Estimated
Thu 06:15:00 AM 29.8586 112.0943 329° Northwest  Level Estimated
Thu 06:16:00 AM 29.9310 112.0446 329° Northwest  Level Estimated
Thu 06:17:00 AM 30.0033 111.9947 329° Northwest  Level Estimated
Thu 06:18:00 AM 30.0757 111.9448 329° Northwest  Level Estimated
Thu 06:19:00 AM 30.1480 111.8948 329° Northwest  Level Estimated
Thu 06:20:00 AM 30.2203 111.8448 329° Northwest  Level Estimated
Thu 06:21:00 AM 30.2925 111.7946 329° Northwest  Level Estimated
Thu 06:22:00 AM 30.3648 111.7445 329° Northwest  Level Estimated
Thu 06:23:00 AM 30.4370 111.6942 329° Northwest  Level Estimated
Thu 06:24:00 AM 30.5093 111.6438 329° Northwest  Level Estimated
Thu 06:25:00 AM 30.5815 111.5934 329° Northwest  Level Estimated
Thu 06:26:00 AM 30.6537 111.5429 329° Northwest  Level Estimated
Thu 06:27:00 AM 30.7258 111.4923 329° Northwest  Level Estimated
Thu 06:28:00 AM 30.7980 111.4417 329° Northwest  Level Estimated
Thu 06:29:00 AM 30.8701 111.3909 329° Northwest  Level Estimated
Thu 06:30:00 AM 30.9422 111.3401 329° Northwest  Level Estimated
Thu 06:31:00 AM 31.0142 111.2892 329° Northwest  Level Estimated
Thu 06:32:00 AM 31.0863 111.2383 329° Northwest  Level Estimated
Thu 06:33:00 AM 31.1583 111.1872 329° Northwest  Level Estimated
Thu 06:34:00 AM 31.2304 111.1361 329° Northwest  Level Estimated
Thu 06:35:00 AM 31.3024 111.0849 329° Northwest  Level Estimated
Thu 06:36:00 AM 31.3743 111.0337 329° Northwest  Level Estimated
Thu 06:37:00 AM 31.4463 110.9823 329° Northwest  Level Estimated
Thu 06:38:00 AM 31.5182 110.9309 329° Northwest  Level Estimated
Thu 06:39:00 AM 31.5902 110.8794 329° Northwest  Level Estimated
Thu 06:40:00 AM 31.6621 110.8278 329° Northwest  Level Estimated
Thu 06:41:00 AM 31.7339 110.7761 329° Northwest  Level Estimated
Thu 06:42:00 AM 31.8058 110.7244 329° Northwest  Level Estimated
Thu 06:43:00 AM 31.8776 110.6725 329° Northwest  Level Estimated
Thu 06:44:00 AM 31.9494 110.6206 328° Northwest  Level Estimated
Thu 06:45:00 AM 32.0212 110.5686 328° Northwest  Level Estimated
Thu 06:46:00 AM 32.0930 110.5166 328° Northwest  Level Estimated
Thu 06:47:00 AM 32.1647 110.4644 328° Northwest  Level Estimated
Thu 06:48:00 AM 32.2365 110.4122 328° Northwest  Level Estimated
Thu 06:49:00 AM 32.3082 110.3599 328° Northwest  Level Estimated
Thu 06:50:00 AM 32.3799 110.3075 328° Northwest  Level Estimated
Thu 06:51:00 AM 32.4515 110.2550 328° Northwest  Level Estimated
Thu 06:52:00 AM 32.5232 110.2024 328° Northwest  Level Estimated
Thu 06:53:00 AM 32.5948 110.1498 328° Northwest  Level Estimated
Thu 06:54:00 AM 32.6664 110.0970 328° Northwest  Level Estimated
Thu 06:55:00 AM 32.7380 110.0442 328° Northwest  Level Estimated
Thu 06:56:00 AM 32.8095 109.9913 328° Northwest  Level Estimated
Thu 06:57:00 AM 32.8827 109.9370 328° Northwest  Level Estimated
Thu 06:58:00 AM 32.9559 109.8827 328° Northwest  Level Estimated
Thu 06:59:00 AM 33.0291 109.8283 328° Northwest  Level Estimated
Thu 07:00:00 AM 33.1022 109.7738 328° Northwest  Level Estimated
Thu 07:01:00 AM 33.1754 109.7192 328° Northwest  Level Estimated
Thu 07:02:00 AM 33.2485 109.6645 328° Northwest  Level Estimated
Thu 07:03:00 AM 33.3215 109.6097 328° Northwest  Level Estimated
Thu 07:04:00 AM 33.3946 109.5548 328° Northwest  Level Estimated
Thu 07:05:00 AM 33.4676 109.4999 328° Northwest  Level Estimated
Thu 07:06:00 AM 33.5406 109.4448 328° Northwest  Level Estimated
Thu 07:07:00 AM 33.6136 109.3897 328° Northwest  Level Estimated
Thu 07:08:00 AM 33.6865 109.3344 328° Northwest  Level Estimated
Thu 07:09:00 AM 33.7594 109.2791 328° Northwest  Level Estimated
Thu 07:10:00 AM 33.8323 109.2236 328° Northwest  Level Estimated
Thu 07:11:00 AM 33.9052 109.1681 328° Northwest  Level Estimated
Thu 07:12:00 AM 33.9781 109.1125 328° Northwest  Level Estimated
Thu 07:13:00 AM 34.0509 109.0568 328° Northwest  Level Estimated
Thu 07:14:00 AM 34.1237 109.0010 328° Northwest  Level Estimated
Thu 07:15:00 AM 34.1965 108.9451 328° Northwest  Level Estimated
Thu 07:16:00 AM 34.2692 108.8890 328° Northwest  Level Estimated
Thu 07:17:00 AM 34.3419 108.8329 328° Northwest  Level Estimated
Thu 07:18:00 AM 34.4146 108.7767 327° Northwest  Level Estimated
Thu 07:19:00 AM 34.4471 108.7516 327° Northwest  Level Estimated
Thu 07:20:00 AM 34.4471 108.7516 121° Southeast  Level Estimated
Thu 07:21:00 AM 34.4471 108.7516 121° Southeast  Level Estimated
Thu 07:22:00 AM 34.4471 108.7516 121° Southeast  Level Estimated
Thu 07:23:00 AM 34.4471 108.7516 121° Southeast  Level Estimated
Thu 07:24:00 AM 34.4471 108.7516 121° Southeast  Level Estimated
Thu 07:25:00 AM 34.4471 108.7516 121° Southeast  Level Estimated
Thu 07:26:00 AM 34.4471 108.7516 121° Southeast  Level Estimated
Thu 07:27:00 AM 34.4471 108.7516 121° Southeast  Level Estimated
Thu 07:28:00 AM 34.4471 108.7516 121° Southeast  Level Estimated
Thu 07:29:00 AM 34.4471 108.7516 121° Southeast  Level Estimated
Thu 07:30:00 AM 34.4471 108.7516 121° Southeast  Level Estimated
Thu 07:31:00 AM 34.4471 108.7516 121° Southeast  Level Estimated

Login

Don't have an account? Register now (free) for customized features, flight alerts, and more!